sensor_id;sensor_type;location;lat;lon;timestamp;P1;durP1;ratioP1;P2;durP2;ratioP2
35893;SDS011;21994;48.204;16.516;2024-03-25T08:59:41;0.20;;;0.05;;
35893;SDS011;21994;48.204;16.516;2024-03-25T09:02:06;0.08;;;0.08;;
35893;SDS011;21994;48.204;16.516;2024-03-25T09:04:35;0.20;;;0.20;;
35893;SDS011;21994;48.204;16.516;2024-03-25T09:07:01;0.00;;;0.00;;
35893;SDS011;21994;48.204;16.516;2024-03-25T09:09:28;0.20;;;0.20;;
35893;SDS011;21994;48.204;16.516;2024-03-25T09:12:12;0.17;;;0.10;;
35893;SDS011;21994;48.204;16.516;2024-03-25T09:14:41;0.10;;;0.10;;
35893;SDS011;21994;48.204;16.516;2024-03-25T09:17:06;0.22;;;0.00;;
35893;SDS011;21994;48.204;16.516;2024-03-25T09:19:32;2.42;;;0.90;;
35893;SDS011;21994;48.204;16.516;2024-03-25T09:21:59;0.15;;;0.10;;
35893;SDS011;21994;48.204;16.516;2024-03-25T09:24:25;0.10;;;0.00;;
35893;SDS011;21994;48.204;16.516;2024-03-25T09:26:54;0.00;;;0.00;;
35893;SDS011;21994;48.204;16.516;2024-03-25T09:33:20;0.15;;;0.10;;
35893;SDS011;21994;48.204;16.516;2024-03-25T09:35:49;0.05;;;0.03;;
35893;SDS011;21994;48.204;16.516;2024-03-25T09:38:38;0.10;;;0.10;;
35893;SDS011;21994;48.204;16.516;2024-03-25T09:41:09;0.00;;;0.00;;
35893;SDS011;21994;48.204;16.516;2024-03-25T09:50:10;0.08;;;0.08;;
35893;SDS011;21994;48.204;16.516;2024-03-25T09:52:39;0.00;;;0.00;;
35893;SDS011;21994;48.204;16.516;2024-03-25T09:55:05;0.10;;;0.00;;
35893;SDS011;21994;48.204;16.516;2024-03-25T09:57:49;0.00;;;0.00;;
35893;SDS011;21994;48.204;16.516;2024-03-25T10:00:19;0.00;;;0.00;;
35893;SDS011;21994;48.204;16.516;2024-03-25T10:02:46;0.03;;;0.03;;
35893;SDS011;21994;48.204;16.516;2024-03-25T10:05:15;1.10;;;0.93;;
35893;SDS011;21994;48.204;16.516;2024-03-25T10:07:41;0.00;;;0.00;;
35893;SDS011;21994;48.204;16.516;2024-03-25T10:10:07;0.52;;;0.52;;
35893;SDS011;21994;48.204;16.516;2024-03-25T10:12:35;0.35;;;0.10;;
35893;SDS011;21994;48.204;16.516;2024-03-25T10:15:06;0.05;;;0.05;;
35893;SDS011;21994;48.204;16.516;2024-03-25T10:17:35;0.17;;;0.17;;
35893;SDS011;21994;48.204;16.516;2024-03-25T10:20:01;0.25;;;0.00;;
35893;SDS011;21994;48.204;16.516;2024-03-25T10:22:40;0.10;;;0.10;;
35893;SDS011;21994;48.204;16.516;2024-03-25T10:27:58;0.00;;;0.00;;
35893;SDS011;21994;48.204;16.516;2024-03-25T10:30:26;0.00;;;0.00;;
35893;SDS011;21994;48.204;16.516;2024-03-25T10:33:00;0.00;;;0.00;;
35893;SDS011;21994;48.204;16.516;2024-03-25T10:35:36;0.10;;;0.10;;
35893;SDS011;21994;48.204;16.516;2024-03-25T10:38:04;0.10;;;0.10;;
35893;SDS011;21994;48.204;16.516;2024-03-25T10:40:32;0.00;;;0.00;;
35893;SDS011;21994;48.204;16.516;2024-03-25T10:43:06;0.00;;;0.00;;
35893;SDS011;21994;48.204;16.516;2024-03-25T10:45:45;0.08;;;0.00;;
35893;SDS011;21994;48.204;16.516;2024-03-25T10:48:20;0.03;;;0.00;;
35893;SDS011;21994;48.204;16.516;2024-03-25T10:50:53;0.00;;;0.00;;
35893;SDS011;21994;48.204;16.516;2024-03-25T10:53:27;0.65;;;0.45;;
35893;SDS011;21994;48.204;16.516;2024-03-25T10:55:57;0.00;;;0.00;;
35893;SDS011;21994;48.204;16.516;2024-03-25T10:58:26;0.15;;;0.00;;
35893;SDS011;21994;48.204;16.516;2024-03-25T11:00:54;0.00;;;0.00;;
35893;SDS011;21994;48.204;16.516;2024-03-25T11:03:22;0.00;;;0.00;;
35893;SDS011;21994;48.204;16.516;2024-03-25T11:05:49;0.17;;;0.17;;
35893;SDS011;21994;48.204;16.516;2024-03-25T11:08:16;0.00;;;0.00;;
35893;SDS011;21994;48.204;16.516;2024-03-25T11:10:43;0.10;;;0.05;;
35893;SDS011;21994;48.204;16.516;2024-03-25T11:13:14;0.20;;;0.20;;
35893;SDS011;21994;48.204;16.516;2024-03-25T11:15:46;0.15;;;0.00;;
35893;SDS011;21994;48.204;16.516;2024-03-25T11:18:14;0.00;;;0.00;;
35893;SDS011;21994;48.204;16.516;2024-03-25T11:20:59;0.65;;;0.65;;
35893;SDS011;21994;48.204;16.516;2024-03-25T11:23:38;0.57;;;0.00;;
35893;SDS011;21994;48.204;16.516;2024-03-25T11:26:21;0.10;;;0.10;;
35893;SDS011;21994;48.204;16.516;2024-03-25T11:28:50;0.47;;;0.20;;
35893;SDS011;21994;48.204;16.516;2024-03-25T11:31:19;0.32;;;0.30;;
35893;SDS011;21994;48.204;16.516;2024-03-25T11:33:49;0.13;;;0.13;;
35893;SDS011;21994;48.204;16.516;2024-03-25T11:36:18;0.63;;;0.30;;
35893;SDS011;21994;48.204;16.516;2024-03-25T11:39:02;0.25;;;0.20;;
35893;SDS011;21994;48.204;16.516;2024-03-25T11:41:34;0.00;;;0.00;;
35893;SDS011;21994;48.204;16.516;2024-03-25T11:44:08;0.10;;;0.10;;
35893;SDS011;21994;48.204;16.516;2024-03-25T11:46:46;0.47;;;0.10;;
35893;SDS011;21994;48.204;16.516;2024-03-25T11:49:21;0.00;;;0.00;;
35893;SDS011;21994;48.204;16.516;2024-03-25T11:51:47;1.33;;;0.20;;
35893;SDS011;21994;48.204;16.516;2024-03-25T11:54:14;0.00;;;0.00;;
35893;SDS011;21994;48.204;16.516;2024-03-25T11:56:41;0.00;;;0.00;;
35893;SDS011;21994;48.204;16.516;2024-03-25T11:59:13;0.10;;;0.10;;
35893;SDS011;21994;48.204;16.516;2024-03-25T12:01:42;0.00;;;0.00;;
35893;SDS011;21994;48.204;16.516;2024-03-25T12:04:16;0.00;;;0.00;;
35893;SDS011;21994;48.204;16.516;2024-03-25T12:06:43;0.00;;;0.00;;
35893;SDS011;21994;48.204;16.516;2024-03-25T12:09:10;0.10;;;0.10;;
35893;SDS011;21994;48.204;16.516;2024-03-25T12:12:03;0.08;;;0.08;;
35893;SDS011;21994;48.204;16.516;2024-03-25T12:14:32;0.98;;;0.10;;
35893;SDS011;21994;48.204;16.516;2024-03-25T12:17:01;0.10;;;0.00;;
35893;SDS011;21994;48.204;16.516;2024-03-25T12:19:27;0.00;;;0.00;;
35893;SDS011;21994;48.204;16.516;2024-03-25T12:22:01;0.20;;;0.13;;
35893;SDS011;21994;48.204;16.516;2024-03-25T12:24:30;0.00;;;0.00;;
35893;SDS011;21994;48.204;16.516;2024-03-25T12:26:56;0.05;;;0.05;;
35893;SDS011;21994;48.204;16.516;2024-03-25T12:29:22;0.10;;;0.05;;
35893;SDS011;21994;48.204;16.516;2024-03-25T12:31:54;0.75;;;0.10;;
35893;SDS011;21994;48.204;16.516;2024-03-25T12:34:21;0.00;;;0.00;;
35893;SDS011;21994;48.204;16.516;2024-03-25T12:36:48;0.10;;;0.10;;
35893;SDS011;21994;48.204;16.516;2024-03-25T12:39:20;0.00;;;0.00;;
35893;SDS011;21994;48.204;16.516;2024-03-25T12:41:46;0.00;;;0.00;;
35893;SDS011;21994;48.204;16.516;2024-03-25T12:44:15;0.00;;;0.00;;
35893;SDS011;21994;48.204;16.516;2024-03-25T12:46:40;0.10;;;0.10;;
35893;SDS011;21994;48.204;16.516;2024-03-25T12:49:06;0.00;;;0.00;;
35893;SDS011;21994;48.204;16.516;2024-03-25T12:51:32;0.10;;;0.10;;
35893;SDS011;21994;48.204;16.516;2024-03-25T12:53:58;0.15;;;0.15;;
35893;SDS011;21994;48.204;16.516;2024-03-25T12:56:24;0.00;;;0.00;;
35893;SDS011;21994;48.204;16.516;2024-03-25T12:58:52;0.00;;;0.00;;
35893;SDS011;21994;48.204;16.516;2024-03-25T13:01:18;1.67;;;0.25;;
35893;SDS011;21994;48.204;16.516;2024-03-25T13:03:44;1.98;;;0.10;;
35893;SDS011;21994;48.204;16.516;2024-03-25T13:06:10;0.00;;;0.00;;
35893;SDS011;21994;48.204;16.516;2024-03-25T13:08:36;0.00;;;0.00;;
35893;SDS011;21994;48.204;16.516;2024-03-25T13:11:02;0.38;;;0.20;;
35893;SDS011;21994;48.204;16.516;2024-03-25T13:13:31;0.10;;;0.10;;
35893;SDS011;21994;48.204;16.516;2024-03-25T13:16:00;1.65;;;1.55;;
35893;SDS011;21994;48.204;16.516;2024-03-25T13:18:26;0.10;;;0.05;;
35893;SDS011;21994;48.204;16.516;2024-03-25T13:20:52;0.08;;;0.08;;
35893;SDS011;21994;48.204;16.516;2024-03-25T13:23:21;0.00;;;0.00;;
35893;SDS011;21994;48.204;16.516;2024-03-25T13:25:46;0.00;;;0.00;;
35893;SDS011;21994;48.204;16.516;2024-03-25T13:28:12;0.00;;;0.00;;
35893;SDS011;21994;48.204;16.516;2024-03-25T13:30:38;0.00;;;0.00;;
35893;SDS011;21994;48.204;16.516;2024-03-25T13:33:06;0.00;;;0.00;;
35893;SDS011;21994;48.204;16.516;2024-03-25T13:35:32;0.77;;;0.10;;
35893;SDS011;21994;48.204;16.516;2024-03-25T13:37:59;1.02;;;0.10;;
35893;SDS011;21994;48.204;16.516;2024-03-25T13:40:25;0.30;;;0.10;;
35893;SDS011;21994;48.204;16.516;2024-03-25T13:42:51;0.10;;;0.10;;
35893;SDS011;21994;48.204;16.516;2024-03-25T13:45:17;0.15;;;0.08;;
35893;SDS011;21994;48.204;16.516;2024-03-25T13:47:43;0.20;;;0.03;;
35893;SDS011;21994;48.204;16.516;2024-03-25T13:50:09;0.20;;;0.10;;
35893;SDS011;21994;48.204;16.516;2024-03-25T13:52:36;0.10;;;0.10;;
35893;SDS011;21994;48.204;16.516;2024-03-25T13:55:07;0.20;;;0.10;;
35893;SDS011;21994;48.204;16.516;2024-03-25T13:57:33;0.10;;;0.10;;
35893;SDS011;21994;48.204;16.516;2024-03-25T14:00:01;0.00;;;0.00;;
35893;SDS011;21994;48.204;16.516;2024-03-25T14:02:37;0.00;;;0.00;;
35893;SDS011;21994;48.204;16.516;2024-03-25T14:05:07;0.00;;;0.00;;
35893;SDS011;21994;48.204;16.516;2024-03-25T14:07:33;0.00;;;0.00;;
35893;SDS011;21994;48.204;16.516;2024-03-25T14:10:02;0.70;;;0.60;;
35893;SDS011;21994;48.204;16.516;2024-03-25T14:12:30;0.25;;;0.15;;
35893;SDS011;21994;48.204;16.516;2024-03-25T14:14:58;0.00;;;0.00;;
35893;SDS011;21994;48.204;16.516;2024-03-25T14:17:24;0.00;;;0.00;;
35893;SDS011;21994;48.204;16.516;2024-03-25T14:19:53;0.17;;;0.17;;
35893;SDS011;21994;48.204;16.516;2024-03-25T14:22:21;0.47;;;0.17;;
35893;SDS011;21994;48.204;16.516;2024-03-25T14:24:47;0.00;;;0.00;;
35893;SDS011;21994;48.204;16.516;2024-03-25T14:27:21;1.60;;;0.10;;
35893;SDS011;21994;48.204;16.516;2024-03-25T14:29:48;0.15;;;0.10;;
35893;SDS011;21994;48.204;16.516;2024-03-25T14:32:14;0.00;;;0.00;;
35893;SDS011;21994;48.204;16.516;2024-03-25T14:34:40;0.00;;;0.00;;
35893;SDS011;21994;48.204;16.516;2024-03-25T14:37:06;0.10;;;0.10;;
35893;SDS011;21994;48.204;16.516;2024-03-25T14:39:32;0.00;;;0.00;;
35893;SDS011;21994;48.204;16.516;2024-03-25T14:41:58;0.40;;;0.40;;
35893;SDS011;21994;48.204;16.516;2024-03-25T14:44:24;1.20;;;0.40;;
35893;SDS011;21994;48.204;16.516;2024-03-25T14:46:50;0.00;;;0.00;;
35893;SDS011;21994;48.204;16.516;2024-03-25T14:49:16;0.20;;;0.20;;
35893;SDS011;21994;48.204;16.516;2024-03-25T14:51:42;0.17;;;0.17;;
35893;SDS011;21994;48.204;16.516;2024-03-25T14:54:11;0.00;;;0.00;;
35893;SDS011;21994;48.204;16.516;2024-03-25T14:56:40;0.00;;;0.00;;
35893;SDS011;21994;48.204;16.516;2024-03-25T14:59:06;0.10;;;0.10;;
35893;SDS011;21994;48.204;16.516;2024-03-25T15:01:32;0.00;;;0.00;;
35893;SDS011;21994;48.204;16.516;2024-03-25T15:04:00;0.08;;;0.05;;
35893;SDS011;21994;48.204;16.516;2024-03-25T15:06:26;0.00;;;0.00;;
35893;SDS011;21994;48.204;16.516;2024-03-25T15:08:52;0.00;;;0.00;;
35893;SDS011;21994;48.204;16.516;2024-03-25T15:11:18;0.38;;;0.10;;
35893;SDS011;21994;48.204;16.516;2024-03-25T15:13:44;1.27;;;0.17;;
35893;SDS011;21994;48.204;16.516;2024-03-25T15:16:11;0.30;;;0.20;;
35893;SDS011;21994;48.204;16.516;2024-03-25T15:18:36;0.00;;;0.00;;
35893;SDS011;21994;48.204;16.516;2024-03-25T15:21:04;0.55;;;0.35;;
35893;SDS011;21994;48.204;16.516;2024-03-25T15:23:31;0.55;;;0.10;;
35893;SDS011;21994;48.204;16.516;2024-03-25T15:25:57;0.00;;;0.00;;
35893;SDS011;21994;48.204;16.516;2024-03-25T15:28:24;0.65;;;0.30;;
35893;SDS011;21994;48.204;16.516;2024-03-25T15:30:52;0.00;;;0.00;;
35893;SDS011;21994;48.204;16.516;2024-03-25T15:33:18;0.90;;;0.10;;
35893;SDS011;21994;48.204;16.516;2024-03-25T15:35:44;0.90;;;0.90;;
35893;SDS011;21994;48.204;16.516;2024-03-25T15:38:10;0.00;;;0.00;;
35893;SDS011;21994;48.204;16.516;2024-03-25T15:40:36;0.00;;;0.00;;
35893;SDS011;21994;48.204;16.516;2024-03-25T15:43:02;0.65;;;0.20;;
35893;SDS011;21994;48.204;16.516;2024-03-25T15:45:29;0.30;;;0.30;;
35893;SDS011;21994;48.204;16.516;2024-03-25T15:47:55;0.52;;;0.20;;
35893;SDS011;21994;48.204;16.516;2024-03-25T15:50:21;0.25;;;0.25;;
35893;SDS011;21994;48.204;16.516;2024-03-25T15:52:48;0.10;;;0.00;;
35893;SDS011;21994;48.204;16.516;2024-03-25T15:55:14;0.20;;;0.20;;
35893;SDS011;21994;48.204;16.516;2024-03-25T15:57:41;0.00;;;0.00;;
35893;SDS011;21994;48.204;16.516;2024-03-25T16:00:07;0.10;;;0.10;;
35893;SDS011;21994;48.204;16.516;2024-03-25T16:02:38;0.20;;;0.20;;
35893;SDS011;21994;48.204;16.516;2024-03-25T16:05:04;0.20;;;0.10;;
35893;SDS011;21994;48.204;16.516;2024-03-25T16:07:34;0.30;;;0.30;;
35893;SDS011;21994;48.204;16.516;2024-03-25T16:10:00;0.60;;;0.15;;
35893;SDS011;21994;48.204;16.516;2024-03-25T16:12:26;0.00;;;0.00;;
35893;SDS011;21994;48.204;16.516;2024-03-25T16:14:52;0.10;;;0.00;;
35893;SDS011;21994;48.204;16.516;2024-03-25T16:17:20;0.10;;;0.10;;
35893;SDS011;21994;48.204;16.516;2024-03-25T16:19:49;0.00;;;0.00;;
35893;SDS011;21994;48.204;16.516;2024-03-25T16:22:15;0.70;;;0.55;;
35893;SDS011;21994;48.204;16.516;2024-03-25T16:24:41;0.55;;;0.38;;
35893;SDS011;21994;48.204;16.516;2024-03-25T16:27:07;0.20;;;0.20;;
35893;SDS011;21994;48.204;16.516;2024-03-25T16:29:35;0.10;;;0.10;;
35893;SDS011;21994;48.204;16.516;2024-03-25T16:32:03;0.20;;;0.10;;
35893;SDS011;21994;48.204;16.516;2024-03-25T16:34:29;0.00;;;0.00;;
35893;SDS011;21994;48.204;16.516;2024-03-25T16:36:55;0.10;;;0.10;;
35893;SDS011;21994;48.204;16.516;2024-03-25T16:39:21;1.08;;;0.10;;
35893;SDS011;21994;48.204;16.516;2024-03-25T16:41:47;0.00;;;0.00;;
35893;SDS011;21994;48.204;16.516;2024-03-25T16:44:13;0.10;;;0.10;;
35893;SDS011;21994;48.204;16.516;2024-03-25T16:46:38;0.10;;;0.10;;
35893;SDS011;21994;48.204;16.516;2024-03-25T16:49:04;0.25;;;0.08;;
35893;SDS011;21994;48.204;16.516;2024-03-25T16:51:30;0.10;;;0.10;;
35893;SDS011;21994;48.204;16.516;2024-03-25T16:53:56;0.00;;;0.00;;
35893;SDS011;21994;48.204;16.516;2024-03-25T16:56:22;0.93;;;0.08;;
35893;SDS011;21994;48.204;16.516;2024-03-25T16:58:49;1.10;;;1.10;;
35893;SDS011;21994;48.204;16.516;2024-03-25T17:01:15;0.00;;;0.00;;
35893;SDS011;21994;48.204;16.516;2024-03-25T17:03:40;0.05;;;0.05;;
35893;SDS011;21994;48.204;16.516;2024-03-25T17:06:06;0.65;;;0.30;;
35893;SDS011;21994;48.204;16.516;2024-03-25T17:08:34;0.47;;;0.40;;
35893;SDS011;21994;48.204;16.516;2024-03-25T17:11:00;0.65;;;0.20;;
35893;SDS011;21994;48.204;16.516;2024-03-25T17:13:27;0.22;;;0.00;;
35893;SDS011;21994;48.204;16.516;2024-03-25T17:15:52;0.10;;;0.10;;
35893;SDS011;21994;48.204;16.516;2024-03-25T17:18:18;0.20;;;0.20;;
35893;SDS011;21994;48.204;16.516;2024-03-25T17:20:44;0.38;;;0.38;;
35893;SDS011;21994;48.204;16.516;2024-03-25T17:23:12;0.35;;;0.35;;
35893;SDS011;21994;48.204;16.516;2024-03-25T17:25:38;0.00;;;0.00;;
35893;SDS011;21994;48.204;16.516;2024-03-25T17:28:04;0.00;;;0.00;;
35893;SDS011;21994;48.204;16.516;2024-03-25T17:30:30;0.20;;;0.00;;
35893;SDS011;21994;48.204;16.516;2024-03-25T17:32:56;0.20;;;0.20;;
35893;SDS011;21994;48.204;16.516;2024-03-25T17:35:22;0.65;;;0.63;;
35893;SDS011;21994;48.204;16.516;2024-03-25T17:37:48;0.30;;;0.30;;
35893;SDS011;21994;48.204;16.516;2024-03-25T17:40:14;0.00;;;0.00;;
35893;SDS011;21994;48.204;16.516;2024-03-25T17:42:40;0.10;;;0.10;;
35893;SDS011;21994;48.204;16.516;2024-03-25T17:45:07;0.95;;;0.90;;
35893;SDS011;21994;48.204;16.516;2024-03-25T17:47:33;0.30;;;0.30;;
35893;SDS011;21994;48.204;16.516;2024-03-25T17:50:00;0.17;;;0.13;;
35893;SDS011;21994;48.204;16.516;2024-03-25T17:52:27;0.70;;;0.70;;
35893;SDS011;21994;48.204;16.516;2024-03-25T17:54:53;1.90;;;1.00;;
35893;SDS011;21994;48.204;16.516;2024-03-25T17:57:19;2.10;;;1.33;;
35893;SDS011;21994;48.204;16.516;2024-03-25T17:59:46;2.28;;;1.13;;
35893;SDS011;21994;48.204;16.516;2024-03-25T18:02:12;1.92;;;1.15;;
35893;SDS011;21994;48.204;16.516;2024-03-25T18:04:38;1.75;;;1.45;;
35893;SDS011;21994;48.204;16.516;2024-03-25T18:07:04;0.40;;;0.30;;
35893;SDS011;21994;48.204;16.516;2024-03-25T18:09:30;0.85;;;0.85;;
35893;SDS011;21994;48.204;16.516;2024-03-25T18:11:56;0.60;;;0.52;;
35893;SDS011;21994;48.204;16.516;2024-03-25T18:14:22;2.40;;;0.75;;
35893;SDS011;21994;48.204;16.516;2024-03-25T18:16:48;2.10;;;1.10;;
35893;SDS011;21994;48.204;16.516;2024-03-25T18:19:13;0.20;;;0.20;;
35893;SDS011;21994;48.204;16.516;2024-03-25T18:21:39;5.88;;;0.30;;
35893;SDS011;21994;48.204;16.516;2024-03-25T18:24:05;0.88;;;0.75;;
35893;SDS011;21994;48.204;16.516;2024-03-25T18:26:31;2.50;;;0.75;;
35893;SDS011;21994;48.204;16.516;2024-03-25T18:28:59;1.88;;;0.73;;
35893;SDS011;21994;48.204;16.516;2024-03-25T18:31:25;5.68;;;0.63;;
35893;SDS011;21994;48.204;16.516;2024-03-25T18:33:51;0.93;;;0.90;;
35893;SDS011;21994;48.204;16.516;2024-03-25T18:36:17;1.27;;;1.17;;
35893;SDS011;21994;48.204;16.516;2024-03-25T18:38:46;0.52;;;0.47;;
35893;SDS011;21994;48.204;16.516;2024-03-25T18:41:12;0.10;;;0.10;;
35893;SDS011;21994;48.204;16.516;2024-03-25T18:43:41;0.80;;;0.70;;
35893;SDS011;21994;48.204;16.516;2024-03-25T18:46:06;1.38;;;1.00;;
35893;SDS011;21994;48.204;16.516;2024-03-25T18:48:32;0.65;;;0.65;;
35893;SDS011;21994;48.204;16.516;2024-03-25T18:50:58;4.43;;;0.75;;
35893;SDS011;21994;48.204;16.516;2024-03-25T18:53:24;1.35;;;0.45;;
35893;SDS011;21994;48.204;16.516;2024-03-25T18:55:50;1.77;;;0.55;;
35893;SDS011;21994;48.204;16.516;2024-03-25T18:58:16;1.17;;;1.17;;
35893;SDS011;21994;48.204;16.516;2024-03-25T19:00:42;4.57;;;1.15;;
35893;SDS011;21994;48.204;16.516;2024-03-25T19:03:13;3.17;;;1.58;;
35893;SDS011;21994;48.204;16.516;2024-03-25T19:05:39;4.68;;;2.42;;
35893;SDS011;21994;48.204;16.516;2024-03-25T19:08:06;3.85;;;2.40;;
35893;SDS011;21994;48.204;16.516;2024-03-25T19:10:34;4.07;;;2.83;;
35893;SDS011;21994;48.204;16.516;2024-03-25T19:13:00;1.08;;;0.98;;
35893;SDS011;21994;48.204;16.516;2024-03-25T19:15:26;9.75;;;2.60;;
35893;SDS011;21994;48.204;16.516;2024-03-25T19:17:52;3.17;;;2.30;;
35893;SDS011;21994;48.204;16.516;2024-03-25T19:20:18;2.83;;;1.83;;
35893;SDS011;21994;48.204;16.516;2024-03-25T19:22:44;7.05;;;1.40;;
35893;SDS011;21994;48.204;16.516;2024-03-25T19:25:11;1.33;;;1.23;;
35893;SDS011;21994;48.204;16.516;2024-03-25T19:27:40;5.32;;;1.17;;
35893;SDS011;21994;48.204;16.516;2024-03-25T19:30:06;3.00;;;2.38;;
35893;SDS011;21994;48.204;16.516;2024-03-25T19:32:34;2.20;;;2.00;;
35893;SDS011;21994;48.204;16.516;2024-03-25T19:35:02;6.72;;;1.30;;
35893;SDS011;21994;48.204;16.516;2024-03-25T19:37:28;14.15;;;3.10;;
35893;SDS011;21994;48.204;16.516;2024-03-25T19:39:54;2.70;;;1.42;;
35893;SDS011;21994;48.204;16.516;2024-03-25T19:42:20;0.45;;;0.45;;
35893;SDS011;21994;48.204;16.516;2024-03-25T19:44:46;1.08;;;0.85;;
35893;SDS011;21994;48.204;16.516;2024-03-25T19:47:12;1.23;;;0.68;;
35893;SDS011;21994;48.204;16.516;2024-03-25T19:49:38;0.85;;;0.65;;
35893;SDS011;21994;48.204;16.516;2024-03-25T19:52:04;0.35;;;0.22;;
35893;SDS011;21994;48.204;16.516;2024-03-25T19:54:30;0.20;;;0.20;;
35893;SDS011;21994;48.204;16.516;2024-03-25T19:56:56;0.35;;;0.32;;
35893;SDS011;21994;48.204;16.516;2024-03-25T19:59:22;0.15;;;0.15;;
35893;SDS011;21994;48.204;16.516;2024-03-25T20:01:48;0.20;;;0.20;;
35893;SDS011;21994;48.204;16.516;2024-03-25T20:04:14;0.17;;;0.17;;
35893;SDS011;21994;48.204;16.516;2024-03-25T20:06:40;0.10;;;0.10;;
35893;SDS011;21994;48.204;16.516;2024-03-25T20:09:08;2.45;;;0.32;;
35893;SDS011;21994;48.204;16.516;2024-03-25T20:11:34;0.20;;;0.10;;
35893;SDS011;21994;48.204;16.516;2024-03-25T20:14:00;0.40;;;0.35;;
35893;SDS011;21994;48.204;16.516;2024-03-25T20:16:26;0.43;;;0.35;;
35893;SDS011;21994;48.204;16.516;2024-03-25T20:18:52;0.10;;;0.10;;
35893;SDS011;21994;48.204;16.516;2024-03-25T20:21:18;0.20;;;0.20;;
35893;SDS011;21994;48.204;16.516;2024-03-25T20:23:46;0.80;;;0.80;;
35893;SDS011;21994;48.204;16.516;2024-03-25T20:26:12;0.00;;;0.00;;
35893;SDS011;21994;48.204;16.516;2024-03-25T20:28:38;0.40;;;0.40;;
35893;SDS011;21994;48.204;16.516;2024-03-25T20:31:04;0.10;;;0.10;;
35893;SDS011;21994;48.204;16.516;2024-03-25T20:33:30;0.98;;;0.82;;
35893;SDS011;21994;48.204;16.516;2024-03-25T20:35:56;0.30;;;0.20;;
35893;SDS011;21994;48.204;16.516;2024-03-25T20:38:22;0.00;;;0.00;;
35893;SDS011;21994;48.204;16.516;2024-03-25T20:40:48;0.20;;;0.20;;
35893;SDS011;21994;48.204;16.516;2024-03-25T20:43:14;1.13;;;0.40;;
35893;SDS011;21994;48.204;16.516;2024-03-25T20:45:40;0.10;;;0.10;;
35893;SDS011;21994;48.204;16.516;2024-03-25T20:48:05;0.30;;;0.20;;
35893;SDS011;21994;48.204;16.516;2024-03-25T20:50:34;1.20;;;0.47;;
35893;SDS011;21994;48.204;16.516;2024-03-25T20:53:01;0.00;;;0.00;;
35893;SDS011;21994;48.204;16.516;2024-03-25T20:55:27;0.10;;;0.10;;
35893;SDS011;21994;48.204;16.516;2024-03-25T20:57:53;0.35;;;0.35;;
35893;SDS011;21994;48.204;16.516;2024-03-25T21:00:18;0.00;;;0.00;;
35893;SDS011;21994;48.204;16.516;2024-03-25T21:02:44;0.63;;;0.63;;
35893;SDS011;21994;48.204;16.516;2024-03-25T21:05:10;0.32;;;0.30;;
35893;SDS011;21994;48.204;16.516;2024-03-25T21:07:36;0.28;;;0.28;;
35893;SDS011;21994;48.204;16.516;2024-03-25T21:10:02;0.10;;;0.10;;
35893;SDS011;21994;48.204;16.516;2024-03-25T21:12:30;0.43;;;0.40;;
35893;SDS011;21994;48.204;16.516;2024-03-25T21:15:05;0.20;;;0.17;;
35893;SDS011;21994;48.204;16.516;2024-03-25T21:17:32;0.20;;;0.20;;
35893;SDS011;21994;48.204;16.516;2024-03-25T21:19:58;0.40;;;0.40;;
35893;SDS011;21994;48.204;16.516;2024-03-25T21:22:23;0.00;;;0.00;;
35893;SDS011;21994;48.204;16.516;2024-03-25T21:24:49;0.35;;;0.28;;
35893;SDS011;21994;48.204;16.516;2024-03-25T21:27:15;0.25;;;0.25;;
35893;SDS011;21994;48.204;16.516;2024-03-25T21:29:41;0.00;;;0.00;;
35893;SDS011;21994;48.204;16.516;2024-03-25T21:32:07;1.80;;;0.43;;
35893;SDS011;21994;48.204;16.516;2024-03-25T21:34:32;0.30;;;0.30;;
35893;SDS011;21994;48.204;16.516;2024-03-25T21:36:58;0.22;;;0.22;;
35893;SDS011;21994;48.204;16.516;2024-03-25T21:39:24;0.00;;;0.00;;
35893;SDS011;21994;48.204;16.516;2024-03-25T21:41:50;0.00;;;0.00;;
35893;SDS011;21994;48.204;16.516;2024-03-25T21:44:16;0.00;;;0.00;;
35893;SDS011;21994;48.204;16.516;2024-03-25T21:46:41;3.50;;;0.75;;
35893;SDS011;21994;48.204;16.516;2024-03-25T21:49:08;0.00;;;0.00;;
35893;SDS011;21994;48.204;16.516;2024-03-25T21:51:34;1.42;;;0.30;;
35893;SDS011;21994;48.204;16.516;2024-03-25T21:53:59;0.00;;;0.00;;
35893;SDS011;21994;48.204;16.516;2024-03-25T21:56:25;1.98;;;0.73;;
35893;SDS011;21994;48.204;16.516;2024-03-25T21:58:51;1.15;;;0.45;;
35893;SDS011;21994;48.204;16.516;2024-03-25T22:01:17;0.10;;;0.10;;
35893;SDS011;21994;48.204;16.516;2024-03-25T22:03:45;18.92;;;0.77;;
35893;SDS011;21994;48.204;16.516;2024-03-25T22:06:12;1.92;;;1.75;;
35893;SDS011;21994;48.204;16.516;2024-03-25T22:08:37;0.28;;;0.28;;
35893;SDS011;21994;48.204;16.516;2024-03-25T22:11:05;0.00;;;0.00;;
35893;SDS011;21994;48.204;16.516;2024-03-25T22:13:31;1.77;;;0.60;;
35893;SDS011;21994;48.204;16.516;2024-03-25T22:16:00;0.30;;;0.30;;
35893;SDS011;21994;48.204;16.516;2024-03-25T22:18:27;1.10;;;0.63;;
35893;SDS011;21994;48.204;16.516;2024-03-25T22:20:52;0.52;;;0.35;;
35893;SDS011;21994;48.204;16.516;2024-03-25T22:23:18;0.28;;;0.28;;
35893;SDS011;21994;48.204;16.516;2024-03-25T22:25:45;0.20;;;0.20;;
35893;SDS011;21994;48.204;16.516;2024-03-25T22:28:11;0.38;;;0.38;;
35893;SDS011;21994;48.204;16.516;2024-03-25T22:30:36;0.45;;;0.25;;
35893;SDS011;21994;48.204;16.516;2024-03-25T22:33:02;0.17;;;0.15;;
35893;SDS011;21994;48.204;16.516;2024-03-25T22:35:33;0.00;;;0.00;;
35893;SDS011;21994;48.204;16.516;2024-03-25T22:37:58;0.10;;;0.10;;
35893;SDS011;21994;48.204;16.516;2024-03-25T22:40:25;0.20;;;0.20;;
35893;SDS011;21994;48.204;16.516;2024-03-25T22:42:51;0.30;;;0.30;;
35893;SDS011;21994;48.204;16.516;2024-03-25T22:45:17;0.00;;;0.00;;
35893;SDS011;21994;48.204;16.516;2024-03-25T22:47:43;0.10;;;0.10;;
35893;SDS011;21994;48.204;16.516;2024-03-25T22:50:09;0.20;;;0.20;;
35893;SDS011;21994;48.204;16.516;2024-03-25T22:52:35;2.60;;;0.30;;
35893;SDS011;21994;48.204;16.516;2024-03-25T22:55:00;0.15;;;0.05;;
35893;SDS011;21994;48.204;16.516;2024-03-25T22:57:27;0.00;;;0.00;;
35893;SDS011;21994;48.204;16.516;2024-03-25T22:59:53;0.60;;;0.47;;
35893;SDS011;21994;48.204;16.516;2024-03-25T23:02:19;0.47;;;0.25;;
35893;SDS011;21994;48.204;16.516;2024-03-25T23:04:45;0.13;;;0.13;;
35893;SDS011;21994;48.204;16.516;2024-03-25T23:07:11;0.20;;;0.20;;
35893;SDS011;21994;48.204;16.516;2024-03-25T23:09:37;0.70;;;0.68;;
35893;SDS011;21994;48.204;16.516;2024-03-25T23:12:03;0.00;;;0.00;;
35893;SDS011;21994;48.204;16.516;2024-03-25T23:14:29;0.20;;;0.20;;
35893;SDS011;21994;48.204;16.516;2024-03-25T23:16:55;0.10;;;0.10;;
35893;SDS011;21994;48.204;16.516;2024-03-25T23:19:21;0.17;;;0.17;;
35893;SDS011;21994;48.204;16.516;2024-03-25T23:21:47;0.30;;;0.30;;
35893;SDS011;21994;48.204;16.516;2024-03-25T23:24:13;0.50;;;0.50;;
35893;SDS011;21994;48.204;16.516;2024-03-25T23:26:39;0.15;;;0.15;;
35893;SDS011;21994;48.204;16.516;2024-03-25T23:29:04;0.32;;;0.32;;
35893;SDS011;21994;48.204;16.516;2024-03-25T23:31:30;0.00;;;0.00;;
35893;SDS011;21994;48.204;16.516;2024-03-25T23:33:56;0.70;;;0.70;;
35893;SDS011;21994;48.204;16.516;2024-03-25T23:36:22;0.00;;;0.00;;
35893;SDS011;21994;48.204;16.516;2024-03-25T23:38:48;0.00;;;0.00;;
35893;SDS011;21994;48.204;16.516;2024-03-25T23:41:14;0.50;;;0.50;;
35893;SDS011;21994;48.204;16.516;2024-03-25T23:43:39;1.00;;;0.10;;
35893;SDS011;21994;48.204;16.516;2024-03-25T23:46:05;0.35;;;0.35;;